createdAt,value
2019-06-10T09:35:54.827Z,101866.41
2019-06-10T09:38:22.459Z,101862.29
2019-06-10T09:41:01.420Z,101864.41
2019-06-10T09:43:25.171Z,101864.41
2019-06-10T09:45:56.498Z,101863.85
2019-06-10T09:48:27.384Z,101862.69
2019-06-10T09:50:58.964Z,101854.33
2019-06-10T09:53:35.751Z,101840.33
2019-06-10T09:55:59.911Z,101843.03
2019-06-10T09:58:29.620Z,101838.81
2019-06-10T10:01:02.985Z,101838.47
2019-06-10T10:03:32.926Z,101833.89
2019-06-10T10:06:14.620Z,101826.09
2019-06-10T10:08:35.993Z,101826.09
2019-06-10T10:11:05.639Z,101828.34
2019-06-10T10:13:35.666Z,101826.59
2019-06-10T10:16:05.694Z,101826.59
2019-06-10T10:18:35.504Z,101822.69
2019-06-10T10:21:05.362Z,101813.27
2019-06-10T10:23:50.370Z,101811.73
2019-06-10T10:26:06.315Z,101813.61
2019-06-10T10:28:35.977Z,101809.02
2019-06-10T10:31:05.616Z,101810.78
2019-06-10T10:33:35.550Z,101806.51
2019-06-10T10:36:05.327Z,101804.50
2019-06-10T10:38:35.088Z,101797.44
2019-06-10T10:41:05.593Z,101784.23
2019-06-10T10:43:37.748Z,101789.27
2019-06-10T10:46:06.679Z,101772.50
2019-06-10T10:48:36.327Z,101770.80
2019-06-10T10:51:06.878Z,101766.06
2019-06-10T10:53:36.477Z,101758.13
2019-06-10T10:56:06.255Z,101765.55
2019-06-10T10:58:35.927Z,101749.62
2019-06-10T11:01:05.549Z,101751.53
2019-06-10T11:03:35.250Z,101749.05
2019-06-10T11:06:04.979Z,101752.26
2019-06-10T11:08:34.704Z,101744.33
2019-06-10T11:11:05.936Z,101738.67
2019-06-10T11:13:37.015Z,101741.16
2019-06-10T11:16:06.972Z,101734.88
2019-06-10T11:18:36.615Z,101736.53
2019-06-10T11:21:06.412Z,101730.84
2019-06-10T11:23:36.582Z,101728.82
2019-06-10T11:26:06.254Z,101725.49
2019-06-10T11:28:35.915Z,101719.93
2019-06-10T11:31:06.004Z,101713.19
2019-06-10T11:33:35.732Z,101713.63
2019-06-10T11:36:05.510Z,101704.02
2019-06-10T11:38:35.533Z,101689.37
2019-06-10T11:41:05.431Z,101698.19
2019-06-10T11:43:35.704Z,101684.23
2019-06-10T11:46:07.852Z,101682.70
2019-06-10T11:48:37.105Z,101662.50
2019-06-10T11:51:07.295Z,101666.12
2019-06-10T11:53:36.901Z,101662.55
2019-06-10T11:56:06.626Z,101668.09
2019-06-10T11:58:36.404Z,101660.87
2019-06-10T12:01:06.086Z,101669.83
2019-06-10T12:03:35.730Z,101664.11
2019-06-10T12:06:05.870Z,101671.03
2019-06-10T12:08:45.281Z,101671.28
2019-06-10T12:11:23.053Z,101667.59
2019-06-10T12:13:57.757Z,101667.83
2019-06-10T12:18:56.981Z,101654.63
2019-06-10T12:21:26.636Z,101651.41
2019-06-10T12:24:00.520Z,101644.98
2019-06-10T12:26:29.705Z,101648.80
2019-06-10T12:29:15.063Z,101652.77
2019-06-10T12:31:44.825Z,101651.84
2019-06-10T12:34:14.443Z,101647.30
2019-06-10T12:36:44.147Z,101641.73
2019-06-10T12:39:17.006Z,101653.12
2019-06-10T12:41:45.242Z,101640.34
2019-06-10T12:44:14.915Z,101647.21
2019-06-10T12:46:44.607Z,101646.55
2019-06-10T12:49:18.265Z,101646.07
2019-06-10T12:51:45.622Z,101637.42
2019-06-10T12:54:16.137Z,101639.31
2019-06-10T12:56:45.847Z,101629.23
2019-06-10T12:59:15.479Z,101628.06
2019-06-10T13:01:45.299Z,101621.64
2019-06-10T13:04:16.671Z,101615.06
2019-06-10T13:06:48.346Z,101616.13
2019-06-10T13:09:19.461Z,101611.19
2019-06-10T13:11:49.156Z,101612.22
2019-06-10T13:14:18.786Z,101600.81
2019-06-10T13:16:49.701Z,101595.00
2019-06-10T13:19:19.518Z,101593.53
2019-06-10T13:21:49.163Z,101586.75
2019-06-10T13:24:19.021Z,101587.31
2019-06-10T13:26:48.693Z,101581.03
2019-06-10T13:29:18.418Z,101576.67
2019-06-10T13:31:48.164Z,101567.69
2019-06-10T13:34:17.803Z,101572.46
2019-06-10T13:36:47.473Z,101575.72
2019-06-10T13:39:18.925Z,101563.30
2019-06-10T13:41:48.535Z,101562.52
2019-06-10T13:44:18.172Z,101557.47
2019-06-10T13:46:48.192Z,101566.78
2019-06-10T13:49:18.158Z,101553.09
2019-06-10T13:51:47.915Z,101558.63
2019-06-10T13:54:17.648Z,101564.05
2019-06-10T13:56:47.915Z,101556.07
2019-06-10T13:59:22.901Z,101562.28
2019-06-10T14:01:53.290Z,101563.27
2019-06-10T14:04:25.752Z,101566.67
2019-06-10T14:06:57.272Z,101569.45
2019-06-10T14:09:25.941Z,101562.09
2019-06-10T14:11:55.582Z,101566.52
2019-06-10T14:14:25.227Z,101563.39
2019-06-10T14:16:54.917Z,101564.18
2019-06-10T14:19:24.555Z,101571.33
2019-06-10T14:21:54.186Z,101567.53
2019-06-10T14:24:23.950Z,101569.62
2019-06-10T14:26:53.589Z,101568.71
2019-06-10T14:29:23.236Z,101562.44
2019-06-10T14:31:53.230Z,101561.39
2019-06-10T14:34:23.296Z,101561.48
2019-06-10T14:36:52.919Z,101563.73
2019-06-10T14:39:22.610Z,101562.98
2019-06-10T14:41:52.432Z,101560.48
2019-06-10T14:44:23.490Z,101557.94
2019-06-10T14:46:53.396Z,101556.25
2019-06-10T14:49:23.040Z,101550.70
2019-06-10T14:51:53.783Z,101548.84
2019-06-10T14:54:23.858Z,101549.24
2019-06-10T14:56:57.030Z,101543.47
2019-06-10T14:59:24.869Z,101532.32
2019-06-10T15:01:54.729Z,101542.09
2019-06-10T15:08:42.859Z,101543.83
2019-06-10T15:11:12.263Z,101534.05
2019-06-10T15:13:43.433Z,101528.20
2019-06-10T15:16:14.265Z,101522.64
2019-06-10T15:18:44.260Z,101515.95
2019-06-10T15:21:19.438Z,101518.42
2019-06-10T15:23:58.571Z,101516.95
2019-06-10T15:26:29.928Z,101515.52
2019-06-10T15:28:59.646Z,101513.22
2019-06-10T15:31:30.502Z,101508.14
2019-06-10T15:34:02.892Z,101500.45
2019-06-10T15:36:32.843Z,101492.91
2019-06-10T15:39:16.193Z,101492.00
2019-06-10T15:41:44.214Z,101486.61
2019-06-10T15:44:47.884Z,101482.23
2019-06-10T15:46:57.740Z,101472.77
2019-06-10T15:49:39.956Z,101482.58
2019-06-10T15:52:10.984Z,101472.67
2019-06-10T15:55:08.029Z,101469.83
2019-06-10T15:57:42.675Z,101456.49
2019-06-10T16:00:14.272Z,101458.05
2019-06-10T16:02:42.569Z,101453.27
2019-06-10T16:05:14.360Z,101452.36
2019-06-10T16:07:43.792Z,101444.16
2019-06-10T16:10:17.865Z,101442.23
2019-06-10T16:12:48.446Z,101443.13
2019-06-10T16:15:26.065Z,101437.75
2019-06-10T16:17:53.927Z,101439.36
2019-06-10T16:20:23.651Z,101439.77
2019-06-10T16:22:53.619Z,101440.02
2019-06-10T16:25:26.322Z,101442.55
2019-06-10T16:27:55.312Z,101439.22
2019-06-10T16:30:26.628Z,101434.27
2019-06-10T16:32:58.054Z,101429.98
2019-06-10T16:35:27.690Z,101419.83
2019-06-10T16:37:57.330Z,101413.89
2019-06-10T16:40:27.360Z,101416.44
2019-06-10T16:42:57.302Z,101419.27
2019-06-10T16:45:30.684Z,101408.34
2019-06-10T16:48:02.239Z,101413.98
2019-06-10T16:50:34.003Z,101411.20
2019-06-10T16:53:03.014Z,101416.70
2019-06-10T16:55:33.924Z,101426.10
2019-06-10T16:58:03.645Z,101419.39
2019-06-10T17:00:34.878Z,101420.03
2019-06-10T17:06:37.010Z,101420.80
2019-06-10T17:09:09.754Z,101421.09
2019-06-10T17:11:39.396Z,101411.12
2019-06-10T17:14:09.065Z,101408.48
2019-06-10T17:16:40.688Z,101420.64
2019-06-10T17:19:10.447Z,101419.89
2019-06-10T17:21:42.207Z,101413.85
2019-06-10T17:24:12.779Z,101415.44
2019-06-10T17:26:42.728Z,101423.84
2019-06-10T17:29:12.397Z,101426.91
2019-06-10T17:31:42.564Z,101430.05
2019-06-10T17:34:13.142Z,101425.28
2019-06-10T17:36:42.978Z,101414.34
2019-06-10T17:39:18.569Z,101415.59
2019-06-10T17:41:48.256Z,101408.91
2019-06-10T17:44:17.886Z,101412.11
2019-06-10T17:46:47.562Z,101416.30
2019-06-10T17:49:17.493Z,101416.39
2019-06-10T17:51:47.126Z,101414.98
2019-06-10T17:54:16.814Z,101419.77
2019-06-10T17:56:47.406Z,101416.50
2019-06-10T17:59:17.055Z,101412.73
2019-06-10T18:01:46.680Z,101424.93
2019-06-10T18:04:16.345Z,101430.25
2019-06-10T18:06:52.782Z,101436.27
2019-06-10T18:09:23.126Z,101436.84
2019-06-10T18:11:53.062Z,101438.55
2019-06-10T18:14:23.287Z,101442.16
2019-06-10T18:16:54.110Z,101435.66
2019-06-10T18:19:24.263Z,101442.56
2019-06-10T18:21:53.988Z,101440.60
2019-06-10T18:24:25.545Z,101442.66
2019-06-10T18:26:54.986Z,101442.52
2019-06-10T18:29:25.161Z,101436.02
2019-06-10T18:31:54.964Z,101441.42
2019-06-10T18:34:25.692Z,101447.71
2019-06-10T18:36:55.315Z,101453.38
2019-06-10T18:39:24.944Z,101449.36
2019-06-10T18:41:54.610Z,101454.00
2019-06-10T18:44:26.581Z,101447.70
2019-06-10T18:46:55.577Z,101456.31
2019-06-10T18:49:26.427Z,101452.54
2019-06-10T18:51:56.084Z,101442.87
2019-06-10T18:54:25.719Z,101445.59
2019-06-10T18:56:55.760Z,101461.64
2019-06-10T18:59:25.498Z,101474.30
2019-06-10T19:01:55.179Z,101469.23
2019-06-10T19:04:26.087Z,101470.61
2019-06-10T19:10:55.529Z,101467.78
2019-06-10T19:13:25.267Z,101456.80
2019-06-10T19:15:54.916Z,101447.49
2019-06-10T19:18:24.648Z,101452.02
2019-06-10T19:20:55.964Z,101455.70
2019-06-10T19:33:02.470Z,101451.86
2019-06-10T19:35:33.544Z,101457.75
2019-06-10T19:38:02.989Z,101465.06
2019-06-10T19:44:23.422Z,101468.76
2019-06-10T19:46:56.234Z,101497.70
2019-06-10T19:49:32.658Z,101498.91
2019-06-10T19:52:05.681Z,101496.81
2019-06-10T19:54:36.938Z,101493.05
2019-06-10T19:57:09.260Z,101482.59
2019-06-10T19:59:58.411Z,101481.02
2019-06-10T20:02:10.407Z,101478.78
2019-06-10T20:04:46.679Z,101486.84
2019-06-10T20:07:18.906Z,101486.23
2019-06-10T20:09:47.778Z,101476.31
2019-06-10T20:12:18.235Z,101498.09
2019-06-10T20:14:49.192Z,101518.49
2019-06-10T20:17:22.785Z,101518.41
2019-06-10T20:19:52.043Z,101520.75
2019-06-10T20:22:22.799Z,101525.99
2019-06-10T20:24:52.632Z,101548.16
2019-06-10T20:27:22.790Z,101561.89
2019-06-10T20:30:06.610Z,101579.31
2019-06-10T20:32:24.314Z,101577.84
2019-06-10T20:34:53.940Z,101569.44
2019-06-10T20:37:23.626Z,101579.67
2019-06-10T20:39:53.821Z,101579.67
2019-06-10T20:42:23.678Z,101563.42
2019-06-10T20:44:53.365Z,101512.00
2019-06-10T20:47:23.221Z,101465.69
2019-06-10T20:49:55.920Z,101440.61
2019-06-10T20:52:24.423Z,101413.75
2019-06-10T20:54:55.419Z,101394.52
2019-06-10T20:57:49.940Z,101397.56
2019-06-10T21:00:22.645Z,101416.92
2019-06-10T21:02:50.968Z,101445.91
2019-06-10T21:05:26.895Z,101446.00
2019-06-10T21:08:02.988Z,101439.78
2019-06-10T21:10:38.088Z,101418.31
2019-06-10T21:13:33.278Z,101403.31
2019-06-10T21:16:06.027Z,101373.99
2019-06-10T21:18:37.620Z,101352.39
2019-06-10T21:21:10.505Z,101362.37
2019-06-10T21:23:49.029Z,101389.25
2019-06-10T21:26:23.921Z,101393.94
2019-06-10T21:28:59.271Z,101401.83
2019-06-10T21:31:32.555Z,101398.63
2019-06-10T21:34:05.035Z,101390.17
2019-06-10T21:36:41.219Z,101387.41
2019-06-10T21:39:14.983Z,101383.29
2019-06-10T21:41:47.088Z,101392.77
2019-06-10T21:44:39.739Z,101390.42
2019-06-10T21:47:13.538Z,101361.35
2019-06-10T21:49:46.896Z,101361.35
2019-06-10T21:52:16.664Z,101348.29
2019-06-10T21:54:46.800Z,101351.13
2019-06-10T21:57:18.152Z,101384.34
2019-06-10T21:59:55.366Z,101384.34
2019-06-10T22:02:28.786Z,101382.69
2019-06-10T22:04:58.528Z,101371.99
2019-06-10T22:07:34.081Z,101358.09
2019-06-10T22:10:05.480Z,101358.09
2019-06-10T22:12:35.371Z,101368.08
2019-06-10T22:15:08.855Z,101383.70
2019-06-10T22:17:38.640Z,101383.95
2019-06-10T22:20:09.005Z,101395.30
2019-06-10T22:22:38.641Z,101417.97
2019-06-10T22:25:08.445Z,101417.97
2019-06-10T22:27:38.081Z,101434.78
2019-06-10T22:30:11.622Z,101432.09
2019-06-10T22:32:39.431Z,101414.09
2019-06-10T22:35:09.300Z,101413.41
2019-06-10T22:37:38.947Z,101453.61
2019-06-10T22:40:08.682Z,101453.17
2019-06-10T22:42:38.303Z,101453.17
2019-06-10T22:45:08.591Z,101404.39
2019-06-10T22:47:38.325Z,101404.39
2019-06-10T22:50:09.082Z,101381.44
2019-06-10T22:52:38.711Z,101389.09
2019-06-10T22:55:08.628Z,101381.55
2019-06-10T22:57:38.209Z,101377.55
2019-06-10T23:00:13.115Z,101350.50
2019-06-10T23:02:43.893Z,101350.50
2019-06-10T23:05:17.199Z,101343.31
2019-06-10T23:07:45.735Z,101343.31
2019-06-10T23:10:16.027Z,101331.56
2019-06-10T23:12:48.505Z,101325.81
2019-06-10T23:15:19.225Z,101333.42
2019-06-10T23:17:49.098Z,101312.26
2019-06-10T23:20:18.799Z,101309.20
2019-06-10T23:22:49.328Z,101309.20
2019-06-10T23:25:19.009Z,101288.88
2019-06-10T23:27:49.743Z,101281.83
2019-06-10T23:33:01.974Z,101293.12
2019-06-10T23:35:32.364Z,101278.06
2019-06-10T23:38:04.958Z,101278.06
2019-06-10T23:40:33.627Z,101301.55
2019-06-10T23:43:03.969Z,101303.80
2019-06-10T23:45:33.621Z,101303.80
2019-06-10T23:48:05.034Z,101289.36
2019-06-10T23:50:35.942Z,101302.64
2019-06-10T23:53:07.709Z,101307.81
2019-06-10T23:55:37.224Z,101309.22
2019-06-10T23:58:06.941Z,101311.56
